sensor_id;sensor_type;location;lat;lon;timestamp;P1;durP1;ratioP1;P2;durP2;ratioP2
11046;SDS011;5576;50.008;10.596;2023-09-19T00:00:20;1.60;;;0.70;;
11046;SDS011;5576;50.008;10.596;2023-09-19T00:02:54;1.20;;;0.70;;
11046;SDS011;5576;50.008;10.596;2023-09-19T00:05:24;1.48;;;0.90;;
11046;SDS011;5576;50.008;10.596;2023-09-19T00:07:53;0.80;;;0.77;;
11046;SDS011;5576;50.008;10.596;2023-09-19T00:10:24;0.98;;;0.68;;
11046;SDS011;5576;50.008;10.596;2023-09-19T00:12:53;0.90;;;0.70;;
11046;SDS011;5576;50.008;10.596;2023-09-19T00:15:21;1.30;;;0.65;;
11046;SDS011;5576;50.008;10.596;2023-09-19T00:17:48;1.23;;;0.80;;
11046;SDS011;5576;50.008;10.596;2023-09-19T00:20:14;1.00;;;0.90;;
11046;SDS011;5576;50.008;10.596;2023-09-19T00:22:42;1.40;;;0.90;;
11046;SDS011;5576;50.008;10.596;2023-09-19T00:25:11;1.23;;;0.90;;
11046;SDS011;5576;50.008;10.596;2023-09-19T00:27:38;0.80;;;0.80;;
11046;SDS011;5576;50.008;10.596;2023-09-19T00:30:10;0.85;;;0.77;;
11046;SDS011;5576;50.008;10.596;2023-09-19T00:32:41;0.82;;;0.75;;
11046;SDS011;5576;50.008;10.596;2023-09-19T00:35:08;2.28;;;0.80;;
11046;SDS011;5576;50.008;10.596;2023-09-19T00:37:36;1.33;;;0.80;;
11046;SDS011;5576;50.008;10.596;2023-09-19T00:40:06;1.88;;;0.98;;
11046;SDS011;5576;50.008;10.596;2023-09-19T00:42:37;1.25;;;0.80;;
11046;SDS011;5576;50.008;10.596;2023-09-19T00:45:06;0.88;;;0.80;;
11046;SDS011;5576;50.008;10.596;2023-09-19T00:47:35;1.85;;;0.80;;
11046;SDS011;5576;50.008;10.596;2023-09-19T00:50:03;2.13;;;1.00;;
11046;SDS011;5576;50.008;10.596;2023-09-19T00:52:33;1.27;;;0.80;;
11046;SDS011;5576;50.008;10.596;2023-09-19T00:55:04;1.48;;;0.77;;
11046;SDS011;5576;50.008;10.596;2023-09-19T00:57:37;0.93;;;0.77;;
11046;SDS011;5576;50.008;10.596;2023-09-19T01:00:04;1.00;;;0.80;;
11046;SDS011;5576;50.008;10.596;2023-09-19T01:02:36;1.07;;;0.73;;
11046;SDS011;5576;50.008;10.596;2023-09-19T01:05:02;0.80;;;0.80;;
11046;SDS011;5576;50.008;10.596;2023-09-19T01:07:29;1.08;;;0.80;;
11046;SDS011;5576;50.008;10.596;2023-09-19T01:09:57;1.77;;;0.70;;
11046;SDS011;5576;50.008;10.596;2023-09-19T01:12:30;0.85;;;0.82;;
11046;SDS011;5576;50.008;10.596;2023-09-19T01:20:53;1.35;;;0.95;;
11046;SDS011;5576;50.008;10.596;2023-09-19T01:27:05;1.80;;;0.80;;
11046;SDS011;5576;50.008;10.596;2023-09-19T01:29:49;1.00;;;0.80;;
11046;SDS011;5576;50.008;10.596;2023-09-19T01:32:16;1.50;;;0.95;;
11046;SDS011;5576;50.008;10.596;2023-09-19T01:34:49;1.20;;;0.80;;
11046;SDS011;5576;50.008;10.596;2023-09-19T01:37:19;1.48;;;0.90;;
11046;SDS011;5576;50.008;10.596;2023-09-19T01:39:52;1.70;;;0.90;;
11046;SDS011;5576;50.008;10.596;2023-09-19T01:45:07;1.17;;;0.97;;
11046;SDS011;5576;50.008;10.596;2023-09-19T01:47:40;1.70;;;1.08;;
11046;SDS011;5576;50.008;10.596;2023-09-19T01:50:17;1.93;;;0.90;;
11046;SDS011;5576;50.008;10.596;2023-09-19T01:53:10;1.25;;;1.00;;
11046;SDS011;5576;50.008;10.596;2023-09-19T01:55:46;1.25;;;0.80;;
11046;SDS011;5576;50.008;10.596;2023-09-19T01:58:48;1.77;;;1.00;;
11046;SDS011;5576;50.008;10.596;2023-09-19T02:01:11;1.42;;;0.90;;
11046;SDS011;5576;50.008;10.596;2023-09-19T02:03:41;1.40;;;0.90;;
11046;SDS011;5576;50.008;10.596;2023-09-19T02:06:13;1.67;;;1.00;;
11046;SDS011;5576;50.008;10.596;2023-09-19T02:08:40;2.22;;;1.00;;
11046;SDS011;5576;50.008;10.596;2023-09-19T02:11:06;3.05;;;0.93;;
11046;SDS011;5576;50.008;10.596;2023-09-19T02:13:32;2.13;;;1.17;;
11046;SDS011;5576;50.008;10.596;2023-09-19T02:15:59;1.67;;;0.90;;
11046;SDS011;5576;50.008;10.596;2023-09-19T02:18:29;1.50;;;0.90;;
11046;SDS011;5576;50.008;10.596;2023-09-19T02:20:56;1.35;;;1.00;;
11046;SDS011;5576;50.008;10.596;2023-09-19T02:23:24;1.40;;;0.93;;
11046;SDS011;5576;50.008;10.596;2023-09-19T02:25:52;1.75;;;1.00;;
11046;SDS011;5576;50.008;10.596;2023-09-19T02:28:20;1.87;;;1.00;;
11046;SDS011;5576;50.008;10.596;2023-09-19T02:30:47;1.52;;;1.00;;
11046;SDS011;5576;50.008;10.596;2023-09-19T02:33:15;2.38;;;1.10;;
11046;SDS011;5576;50.008;10.596;2023-09-19T02:35:49;2.70;;;1.17;;
11046;SDS011;5576;50.008;10.596;2023-09-19T02:38:20;1.85;;;1.00;;
11046;SDS011;5576;50.008;10.596;2023-09-19T02:40:46;2.35;;;1.05;;
11046;SDS011;5576;50.008;10.596;2023-09-19T02:43:12;1.42;;;1.10;;
11046;SDS011;5576;50.008;10.596;2023-09-19T02:45:38;1.83;;;1.17;;
11046;SDS011;5576;50.008;10.596;2023-09-19T02:48:04;1.38;;;1.00;;
11046;SDS011;5576;50.008;10.596;2023-09-19T02:50:30;1.38;;;1.05;;
11046;SDS011;5576;50.008;10.596;2023-09-19T02:52:56;1.93;;;1.10;;
11046;SDS011;5576;50.008;10.596;2023-09-19T02:55:22;2.67;;;1.20;;
11046;SDS011;5576;50.008;10.596;2023-09-19T02:57:54;2.17;;;1.20;;
11046;SDS011;5576;50.008;10.596;2023-09-19T03:00:20;2.28;;;1.20;;
11046;SDS011;5576;50.008;10.596;2023-09-19T03:02:49;1.60;;;1.40;;
11046;SDS011;5576;50.008;10.596;2023-09-19T03:05:21;1.98;;;1.15;;
11046;SDS011;5576;50.008;10.596;2023-09-19T03:07:49;1.50;;;1.10;;
11046;SDS011;5576;50.008;10.596;2023-09-19T03:10:17;1.48;;;1.00;;
11046;SDS011;5576;50.008;10.596;2023-09-19T03:12:43;1.52;;;1.10;;
11046;SDS011;5576;50.008;10.596;2023-09-19T03:15:13;2.10;;;1.20;;
11046;SDS011;5576;50.008;10.596;2023-09-19T03:17:43;2.50;;;1.33;;
11046;SDS011;5576;50.008;10.596;2023-09-19T03:20:10;1.85;;;1.15;;
11046;SDS011;5576;50.008;10.596;2023-09-19T03:22:38;1.50;;;1.10;;
11046;SDS011;5576;50.008;10.596;2023-09-19T03:25:07;2.42;;;1.20;;
11046;SDS011;5576;50.008;10.596;2023-09-19T03:27:38;1.77;;;1.10;;
11046;SDS011;5576;50.008;10.596;2023-09-19T03:30:05;2.03;;;1.20;;
11046;SDS011;5576;50.008;10.596;2023-09-19T03:32:35;2.08;;;1.13;;
11046;SDS011;5576;50.008;10.596;2023-09-19T03:35:01;1.27;;;1.10;;
11046;SDS011;5576;50.008;10.596;2023-09-19T03:37:31;1.20;;;1.10;;
11046;SDS011;5576;50.008;10.596;2023-09-19T03:40:01;1.60;;;1.10;;
11046;SDS011;5576;50.008;10.596;2023-09-19T03:42:31;2.00;;;1.40;;
11046;SDS011;5576;50.008;10.596;2023-09-19T03:44:57;2.17;;;1.40;;
11046;SDS011;5576;50.008;10.596;2023-09-19T03:47:29;2.33;;;1.40;;
11046;SDS011;5576;50.008;10.596;2023-09-19T03:50:00;2.10;;;1.35;;
11046;SDS011;5576;50.008;10.596;2023-09-19T03:52:25;1.98;;;1.40;;
11046;SDS011;5576;50.008;10.596;2023-09-19T03:54:52;2.10;;;1.45;;
11046;SDS011;5576;50.008;10.596;2023-09-19T03:57:17;1.70;;;1.27;;
11046;SDS011;5576;50.008;10.596;2023-09-19T03:59:46;1.60;;;1.38;;
11046;SDS011;5576;50.008;10.596;2023-09-19T04:02:12;3.05;;;1.40;;
11046;SDS011;5576;50.008;10.596;2023-09-19T04:04:49;2.70;;;1.45;;
11046;SDS011;5576;50.008;10.596;2023-09-19T04:07:20;2.50;;;1.50;;
11046;SDS011;5576;50.008;10.596;2023-09-19T04:09:48;1.92;;;1.50;;
11046;SDS011;5576;50.008;10.596;2023-09-19T04:12:14;1.83;;;1.40;;
11046;SDS011;5576;50.008;10.596;2023-09-19T04:14:44;2.53;;;1.70;;
11046;SDS011;5576;50.008;10.596;2023-09-19T04:17:10;3.40;;;1.60;;
11046;SDS011;5576;50.008;10.596;2023-09-19T04:19:37;2.90;;;1.50;;
11046;SDS011;5576;50.008;10.596;2023-09-19T04:22:04;1.63;;;1.35;;
11046;SDS011;5576;50.008;10.596;2023-09-19T04:24:30;2.57;;;1.60;;
11046;SDS011;5576;50.008;10.596;2023-09-19T04:26:57;1.53;;;1.40;;
11046;SDS011;5576;50.008;10.596;2023-09-19T04:29:24;2.23;;;1.43;;
11046;SDS011;5576;50.008;10.596;2023-09-19T04:31:51;2.90;;;1.70;;
11046;SDS011;5576;50.008;10.596;2023-09-19T04:34:17;2.30;;;1.63;;
11046;SDS011;5576;50.008;10.596;2023-09-19T04:36:43;1.98;;;1.35;;
11046;SDS011;5576;50.008;10.596;2023-09-19T04:39:10;2.47;;;1.60;;
11046;SDS011;5576;50.008;10.596;2023-09-19T04:41:37;1.92;;;1.40;;
11046;SDS011;5576;50.008;10.596;2023-09-19T04:44:06;2.35;;;1.55;;
11046;SDS011;5576;50.008;10.596;2023-09-19T04:46:33;1.70;;;1.40;;
11046;SDS011;5576;50.008;10.596;2023-09-19T04:49:01;1.80;;;1.35;;
11046;SDS011;5576;50.008;10.596;2023-09-19T04:51:28;2.13;;;1.58;;
11046;SDS011;5576;50.008;10.596;2023-09-19T04:53:59;1.63;;;1.40;;
11046;SDS011;5576;50.008;10.596;2023-09-19T04:56:25;2.33;;;1.55;;
11046;SDS011;5576;50.008;10.596;2023-09-19T04:58:54;1.58;;;1.38;;
11046;SDS011;5576;50.008;10.596;2023-09-19T05:01:22;1.90;;;1.50;;
11046;SDS011;5576;50.008;10.596;2023-09-19T05:03:51;2.50;;;1.80;;
11046;SDS011;5576;50.008;10.596;2023-09-19T05:06:18;2.20;;;1.65;;
11046;SDS011;5576;50.008;10.596;2023-09-19T05:08:46;2.33;;;1.80;;
11046;SDS011;5576;50.008;10.596;2023-09-19T05:11:17;2.27;;;1.90;;
11046;SDS011;5576;50.008;10.596;2023-09-19T05:13:44;2.42;;;1.85;;
11046;SDS011;5576;50.008;10.596;2023-09-19T05:16:10;2.40;;;1.70;;
11046;SDS011;5576;50.008;10.596;2023-09-19T05:18:39;2.05;;;1.50;;
11046;SDS011;5576;50.008;10.596;2023-09-19T05:21:08;2.25;;;1.90;;
11046;SDS011;5576;50.008;10.596;2023-09-19T05:23:37;2.08;;;1.73;;
11046;SDS011;5576;50.008;10.596;2023-09-19T05:26:03;2.37;;;1.77;;
11046;SDS011;5576;50.008;10.596;2023-09-19T05:28:33;2.78;;;1.58;;
11046;SDS011;5576;50.008;10.596;2023-09-19T05:31:01;2.50;;;1.70;;
11046;SDS011;5576;50.008;10.596;2023-09-19T05:33:28;1.92;;;1.77;;
11046;SDS011;5576;50.008;10.596;2023-09-19T05:35:59;2.50;;;1.80;;
11046;SDS011;5576;50.008;10.596;2023-09-19T05:38:25;2.80;;;1.80;;
11046;SDS011;5576;50.008;10.596;2023-09-19T05:40:52;2.20;;;1.70;;
11046;SDS011;5576;50.008;10.596;2023-09-19T05:43:21;2.80;;;1.60;;
11046;SDS011;5576;50.008;10.596;2023-09-19T05:45:47;1.70;;;1.60;;
11046;SDS011;5576;50.008;10.596;2023-09-19T05:48:14;2.30;;;1.70;;
11046;SDS011;5576;50.008;10.596;2023-09-19T05:50:46;2.33;;;1.92;;
11046;SDS011;5576;50.008;10.596;2023-09-19T05:53:13;2.33;;;1.70;;
11046;SDS011;5576;50.008;10.596;2023-09-19T05:55:40;1.87;;;1.60;;
11046;SDS011;5576;50.008;10.596;2023-09-19T05:58:06;1.85;;;1.60;;
11046;SDS011;5576;50.008;10.596;2023-09-19T06:00:33;2.80;;;1.60;;
11046;SDS011;5576;50.008;10.596;2023-09-19T06:02:59;2.10;;;1.70;;
11046;SDS011;5576;50.008;10.596;2023-09-19T06:05:25;2.13;;;1.70;;
11046;SDS011;5576;50.008;10.596;2023-09-19T06:07:52;2.70;;;1.80;;
11046;SDS011;5576;50.008;10.596;2023-09-19T06:10:18;1.90;;;1.40;;
11046;SDS011;5576;50.008;10.596;2023-09-19T06:12:51;1.95;;;1.40;;
11046;SDS011;5576;50.008;10.596;2023-09-19T06:15:16;2.40;;;1.47;;
11046;SDS011;5576;50.008;10.596;2023-09-19T06:17:48;2.22;;;1.58;;
11046;SDS011;5576;50.008;10.596;2023-09-19T06:20:15;2.28;;;1.50;;
11046;SDS011;5576;50.008;10.596;2023-09-19T06:22:42;3.70;;;1.70;;
11046;SDS011;5576;50.008;10.596;2023-09-19T06:25:10;2.65;;;1.50;;
11046;SDS011;5576;50.008;10.596;2023-09-19T06:27:38;1.88;;;1.40;;
11046;SDS011;5576;50.008;10.596;2023-09-19T06:30:08;3.50;;;1.73;;
11046;SDS011;5576;50.008;10.596;2023-09-19T06:32:34;1.70;;;1.40;;
11046;SDS011;5576;50.008;10.596;2023-09-19T06:35:00;2.28;;;1.45;;
11046;SDS011;5576;50.008;10.596;2023-09-19T06:37:32;1.88;;;1.40;;
11046;SDS011;5576;50.008;10.596;2023-09-19T06:40:05;2.30;;;1.50;;
11046;SDS011;5576;50.008;10.596;2023-09-19T06:42:32;2.50;;;1.50;;
11046;SDS011;5576;50.008;10.596;2023-09-19T06:44:58;2.38;;;1.50;;
11046;SDS011;5576;50.008;10.596;2023-09-19T06:47:26;2.57;;;1.50;;
11046;SDS011;5576;50.008;10.596;2023-09-19T06:49:58;2.17;;;1.50;;
11046;SDS011;5576;50.008;10.596;2023-09-19T06:52:24;2.22;;;1.50;;
11046;SDS011;5576;50.008;10.596;2023-09-19T06:54:51;2.05;;;1.40;;
11046;SDS011;5576;50.008;10.596;2023-09-19T06:57:17;1.90;;;1.30;;
11046;SDS011;5576;50.008;10.596;2023-09-19T06:59:45;3.78;;;1.80;;
11046;SDS011;5576;50.008;10.596;2023-09-19T07:02:11;2.55;;;1.48;;
11046;SDS011;5576;50.008;10.596;2023-09-19T07:04:39;2.55;;;1.73;;
11046;SDS011;5576;50.008;10.596;2023-09-19T07:07:04;2.15;;;1.50;;
11046;SDS011;5576;50.008;10.596;2023-09-19T07:09:30;1.90;;;1.40;;
11046;SDS011;5576;50.008;10.596;2023-09-19T07:11:56;1.80;;;1.40;;
11046;SDS011;5576;50.008;10.596;2023-09-19T07:14:22;3.10;;;1.50;;
11046;SDS011;5576;50.008;10.596;2023-09-19T07:16:48;2.55;;;1.45;;
11046;SDS011;5576;50.008;10.596;2023-09-19T07:19:14;1.77;;;1.55;;
11046;SDS011;5576;50.008;10.596;2023-09-19T07:21:40;2.30;;;1.58;;
11046;SDS011;5576;50.008;10.596;2023-09-19T07:24:12;2.17;;;1.40;;
11046;SDS011;5576;50.008;10.596;2023-09-19T07:26:39;1.85;;;1.50;;
11046;SDS011;5576;50.008;10.596;2023-09-19T07:29:05;2.03;;;1.55;;
11046;SDS011;5576;50.008;10.596;2023-09-19T07:31:32;2.17;;;1.70;;
11046;SDS011;5576;50.008;10.596;2023-09-19T07:33:58;3.53;;;1.70;;
11046;SDS011;5576;50.008;10.596;2023-09-19T07:36:24;2.45;;;1.75;;
11046;SDS011;5576;50.008;10.596;2023-09-19T07:38:54;2.20;;;1.60;;
11046;SDS011;5576;50.008;10.596;2023-09-19T07:41:20;3.28;;;1.70;;
11046;SDS011;5576;50.008;10.596;2023-09-19T07:43:47;1.80;;;1.60;;
11046;SDS011;5576;50.008;10.596;2023-09-19T07:46:12;3.28;;;1.70;;
11046;SDS011;5576;50.008;10.596;2023-09-19T07:48:38;3.40;;;1.58;;
11046;SDS011;5576;50.008;10.596;2023-09-19T07:51:06;3.15;;;1.70;;
11046;SDS011;5576;50.008;10.596;2023-09-19T07:53:34;2.95;;;1.60;;
11046;SDS011;5576;50.008;10.596;2023-09-19T07:56:04;2.80;;;1.50;;
11046;SDS011;5576;50.008;10.596;2023-09-19T07:58:31;2.45;;;1.50;;
11046;SDS011;5576;50.008;10.596;2023-09-19T08:01:06;2.35;;;1.63;;
11046;SDS011;5576;50.008;10.596;2023-09-19T08:03:33;3.33;;;1.60;;
11046;SDS011;5576;50.008;10.596;2023-09-19T08:06:00;1.95;;;1.40;;
11046;SDS011;5576;50.008;10.596;2023-09-19T08:08:27;2.20;;;1.33;;
11046;SDS011;5576;50.008;10.596;2023-09-19T08:10:53;2.25;;;1.40;;
11046;SDS011;5576;50.008;10.596;2023-09-19T08:13:22;2.20;;;1.40;;
11046;SDS011;5576;50.008;10.596;2023-09-19T08:15:48;2.33;;;1.40;;
11046;SDS011;5576;50.008;10.596;2023-09-19T08:18:16;2.00;;;1.40;;
11046;SDS011;5576;50.008;10.596;2023-09-19T08:20:42;2.30;;;1.40;;
11046;SDS011;5576;50.008;10.596;2023-09-19T08:23:08;2.90;;;1.40;;
11046;SDS011;5576;50.008;10.596;2023-09-19T08:25:34;2.33;;;1.65;;
11046;SDS011;5576;50.008;10.596;2023-09-19T08:28:00;2.38;;;1.60;;
11046;SDS011;5576;50.008;10.596;2023-09-19T08:30:28;2.28;;;1.20;;
11046;SDS011;5576;50.008;10.596;2023-09-19T08:32:57;2.08;;;1.30;;
11046;SDS011;5576;50.008;10.596;2023-09-19T08:35:23;2.10;;;1.50;;
11046;SDS011;5576;50.008;10.596;2023-09-19T08:37:49;3.78;;;1.40;;
11046;SDS011;5576;50.008;10.596;2023-09-19T08:40:16;2.00;;;1.40;;
11046;SDS011;5576;50.008;10.596;2023-09-19T08:42:50;2.83;;;1.50;;
11046;SDS011;5576;50.008;10.596;2023-09-19T08:45:19;1.85;;;1.55;;
11046;SDS011;5576;50.008;10.596;2023-09-19T08:48:10;1.95;;;1.30;;
11046;SDS011;5576;50.008;10.596;2023-09-19T08:50:39;2.42;;;1.60;;
11046;SDS011;5576;50.008;10.596;2023-09-19T08:53:26;1.92;;;1.30;;
11046;SDS011;5576;50.008;10.596;2023-09-19T08:55:57;4.13;;;1.48;;
11046;SDS011;5576;50.008;10.596;2023-09-19T08:58:31;2.00;;;1.35;;
11046;SDS011;5576;50.008;10.596;2023-09-19T09:01:04;2.20;;;1.20;;
11046;SDS011;5576;50.008;10.596;2023-09-19T09:06:01;1.90;;;1.30;;
11046;SDS011;5576;50.008;10.596;2023-09-19T09:08:30;3.25;;;1.40;;
11046;SDS011;5576;50.008;10.596;2023-09-19T09:10:56;2.20;;;1.33;;
11046;SDS011;5576;50.008;10.596;2023-09-19T09:13:24;2.20;;;1.45;;
11046;SDS011;5576;50.008;10.596;2023-09-19T09:15:51;2.20;;;1.42;;
11046;SDS011;5576;50.008;10.596;2023-09-19T09:18:19;2.85;;;1.55;;
11046;SDS011;5576;50.008;10.596;2023-09-19T09:20:47;2.83;;;1.48;;
11046;SDS011;5576;50.008;10.596;2023-09-19T09:23:15;2.55;;;1.40;;
11046;SDS011;5576;50.008;10.596;2023-09-19T09:25:50;2.55;;;1.30;;
11046;SDS011;5576;50.008;10.596;2023-09-19T09:28:25;2.80;;;1.40;;
11046;SDS011;5576;50.008;10.596;2023-09-19T09:30:53;1.73;;;1.30;;
11046;SDS011;5576;50.008;10.596;2023-09-19T09:33:20;1.97;;;1.50;;
11046;SDS011;5576;50.008;10.596;2023-09-19T09:35:54;2.55;;;1.38;;
11046;SDS011;5576;50.008;10.596;2023-09-19T09:38:26;2.22;;;1.60;;
11046;SDS011;5576;50.008;10.596;2023-09-19T09:40:54;2.70;;;1.40;;
11046;SDS011;5576;50.008;10.596;2023-09-19T09:43:26;3.40;;;1.50;;
11046;SDS011;5576;50.008;10.596;2023-09-19T09:46:05;2.50;;;1.50;;
11046;SDS011;5576;50.008;10.596;2023-09-19T09:51:44;3.03;;;1.63;;
11046;SDS011;5576;50.008;10.596;2023-09-19T09:54:23;2.28;;;1.50;;
11046;SDS011;5576;50.008;10.596;2023-09-19T09:56:56;1.95;;;1.40;;
11046;SDS011;5576;50.008;10.596;2023-09-19T10:02:14;3.20;;;1.60;;
11046;SDS011;5576;50.008;10.596;2023-09-19T10:04:48;3.22;;;1.60;;
11046;SDS011;5576;50.008;10.596;2023-09-19T10:07:25;2.60;;;1.60;;
11046;SDS011;5576;50.008;10.596;2023-09-19T10:10:01;2.10;;;1.50;;
11046;SDS011;5576;50.008;10.596;2023-09-19T10:12:47;2.72;;;1.60;;
11046;SDS011;5576;50.008;10.596;2023-09-19T10:15:15;2.78;;;1.50;;
11046;SDS011;5576;50.008;10.596;2023-09-19T10:17:43;2.42;;;1.52;;
11046;SDS011;5576;50.008;10.596;2023-09-19T10:20:12;3.03;;;1.45;;
11046;SDS011;5576;50.008;10.596;2023-09-19T10:22:52;4.45;;;1.60;;
11046;SDS011;5576;50.008;10.596;2023-09-19T10:25:24;2.47;;;1.55;;
11046;SDS011;5576;50.008;10.596;2023-09-19T10:27:51;2.85;;;1.60;;
11046;SDS011;5576;50.008;10.596;2023-09-19T10:30:18;2.10;;;1.45;;
11046;SDS011;5576;50.008;10.596;2023-09-19T10:32:59;2.40;;;1.40;;
11046;SDS011;5576;50.008;10.596;2023-09-19T10:35:27;3.40;;;1.63;;
11046;SDS011;5576;50.008;10.596;2023-09-19T10:37:54;2.65;;;1.50;;
11046;SDS011;5576;50.008;10.596;2023-09-19T10:40:24;3.67;;;1.57;;
11046;SDS011;5576;50.008;10.596;2023-09-19T10:42:59;2.38;;;1.40;;
11046;SDS011;5576;50.008;10.596;2023-09-19T10:45:31;2.67;;;1.58;;
11046;SDS011;5576;50.008;10.596;2023-09-19T10:47:59;2.88;;;1.58;;
11046;SDS011;5576;50.008;10.596;2023-09-19T10:50:27;3.80;;;1.80;;
11046;SDS011;5576;50.008;10.596;2023-09-19T10:53:00;3.00;;;1.60;;
11046;SDS011;5576;50.008;10.596;2023-09-19T10:55:30;3.35;;;1.85;;
11046;SDS011;5576;50.008;10.596;2023-09-19T10:57:58;3.30;;;1.77;;
11046;SDS011;5576;50.008;10.596;2023-09-19T11:00:25;2.60;;;1.42;;
11046;SDS011;5576;50.008;10.596;2023-09-19T11:06:05;2.97;;;1.58;;
11046;SDS011;5576;50.008;10.596;2023-09-19T11:14:14;3.10;;;1.73;;
11046;SDS011;5576;50.008;10.596;2023-09-19T11:28:27;3.35;;;1.80;;
11046;SDS011;5576;50.008;10.596;2023-09-19T11:30:47;3.65;;;1.80;;
11046;SDS011;5576;50.008;10.596;2023-09-19T11:43:53;3.03;;;2.10;;
11046;SDS011;5576;50.008;10.596;2023-09-19T11:46:28;3.70;;;2.00;;
11046;SDS011;5576;50.008;10.596;2023-09-19T11:49:04;2.63;;;1.95;;
11046;SDS011;5576;50.008;10.596;2023-09-19T11:51:41;2.90;;;1.83;;
11046;SDS011;5576;50.008;10.596;2023-09-19T11:54:10;2.08;;;1.60;;
11046;SDS011;5576;50.008;10.596;2023-09-19T11:56:48;3.20;;;1.70;;
11046;SDS011;5576;50.008;10.596;2023-09-19T11:59:20;4.13;;;2.13;;
11046;SDS011;5576;50.008;10.596;2023-09-19T12:01:51;3.38;;;1.70;;
11046;SDS011;5576;50.008;10.596;2023-09-19T12:07:14;3.43;;;1.70;;
11046;SDS011;5576;50.008;10.596;2023-09-19T12:09:45;3.70;;;1.58;;
11046;SDS011;5576;50.008;10.596;2023-09-19T12:12:21;2.75;;;1.70;;
11046;SDS011;5576;50.008;10.596;2023-09-19T12:14:49;2.75;;;1.70;;
11046;SDS011;5576;50.008;10.596;2023-09-19T12:17:15;2.30;;;1.65;;
11046;SDS011;5576;50.008;10.596;2023-09-19T12:19:51;3.47;;;2.00;;
11046;SDS011;5576;50.008;10.596;2023-09-19T12:22:17;3.03;;;1.52;;
11046;SDS011;5576;50.008;10.596;2023-09-19T12:24:45;2.70;;;1.67;;
11046;SDS011;5576;50.008;10.596;2023-09-19T12:27:11;3.63;;;2.08;;
11046;SDS011;5576;50.008;10.596;2023-09-19T12:29:46;3.65;;;1.92;;
11046;SDS011;5576;50.008;10.596;2023-09-19T12:32:17;3.53;;;1.73;;
11046;SDS011;5576;50.008;10.596;2023-09-19T12:34:50;2.17;;;1.77;;
11046;SDS011;5576;50.008;10.596;2023-09-19T12:37:17;2.93;;;1.80;;
11046;SDS011;5576;50.008;10.596;2023-09-19T12:39:49;1.90;;;1.60;;
11046;SDS011;5576;50.008;10.596;2023-09-19T12:42:19;2.63;;;1.77;;
11046;SDS011;5576;50.008;10.596;2023-09-19T12:44:47;3.17;;;1.77;;
11046;SDS011;5576;50.008;10.596;2023-09-19T12:47:17;2.95;;;1.85;;
11046;SDS011;5576;50.008;10.596;2023-09-19T12:52:35;2.25;;;1.65;;
11046;SDS011;5576;50.008;10.596;2023-09-19T12:55:02;2.70;;;1.90;;
11046;SDS011;5576;50.008;10.596;2023-09-19T12:57:28;2.67;;;1.80;;
11046;SDS011;5576;50.008;10.596;2023-09-19T12:59:53;3.13;;;1.50;;
11046;SDS011;5576;50.008;10.596;2023-09-19T13:02:20;2.53;;;1.70;;
11046;SDS011;5576;50.008;10.596;2023-09-19T13:04:52;2.50;;;1.70;;
11046;SDS011;5576;50.008;10.596;2023-09-19T13:10:09;2.88;;;1.70;;
11046;SDS011;5576;50.008;10.596;2023-09-19T13:12:36;3.70;;;1.70;;
11046;SDS011;5576;50.008;10.596;2023-09-19T13:15:08;3.05;;;1.65;;
11046;SDS011;5576;50.008;10.596;2023-09-19T13:17:46;3.10;;;1.60;;
11046;SDS011;5576;50.008;10.596;2023-09-19T13:20:28;4.47;;;1.95;;
11046;SDS011;5576;50.008;10.596;2023-09-19T13:22:57;4.13;;;1.85;;
11046;SDS011;5576;50.008;10.596;2023-09-19T13:25:25;4.78;;;1.70;;
11046;SDS011;5576;50.008;10.596;2023-09-19T13:27:57;3.05;;;1.95;;
11046;SDS011;5576;50.008;10.596;2023-09-19T13:30:25;2.13;;;1.70;;
11046;SDS011;5576;50.008;10.596;2023-09-19T13:33:04;2.40;;;1.60;;
11046;SDS011;5576;50.008;10.596;2023-09-19T13:35:33;2.00;;;1.50;;
11046;SDS011;5576;50.008;10.596;2023-09-19T13:37:59;3.10;;;1.67;;
11046;SDS011;5576;50.008;10.596;2023-09-19T13:40:25;3.58;;;1.90;;
11046;SDS011;5576;50.008;10.596;2023-09-19T13:42:59;3.78;;;1.80;;
11046;SDS011;5576;50.008;10.596;2023-09-19T13:45:24;3.00;;;1.63;;
11046;SDS011;5576;50.008;10.596;2023-09-19T13:47:52;2.63;;;1.40;;
11046;SDS011;5576;50.008;10.596;2023-09-19T13:50:19;4.15;;;1.50;;
11046;SDS011;5576;50.008;10.596;2023-09-19T13:52:49;2.05;;;1.67;;
11046;SDS011;5576;50.008;10.596;2023-09-19T13:55:16;2.80;;;1.52;;
11046;SDS011;5576;50.008;10.596;2023-09-19T13:57:46;3.17;;;1.52;;
11046;SDS011;5576;50.008;10.596;2023-09-19T14:00:18;2.78;;;1.33;;
11046;SDS011;5576;50.008;10.596;2023-09-19T14:02:44;3.63;;;1.50;;
11046;SDS011;5576;50.008;10.596;2023-09-19T14:05:11;2.60;;;1.40;;
11046;SDS011;5576;50.008;10.596;2023-09-19T14:07:40;2.60;;;1.40;;
11046;SDS011;5576;50.008;10.596;2023-09-19T14:10:07;2.35;;;1.45;;
11046;SDS011;5576;50.008;10.596;2023-09-19T14:12:33;2.60;;;1.60;;
11046;SDS011;5576;50.008;10.596;2023-09-19T14:15:00;1.60;;;1.40;;
11046;SDS011;5576;50.008;10.596;2023-09-19T14:17:26;1.95;;;1.30;;
11046;SDS011;5576;50.008;10.596;2023-09-19T14:19:54;2.28;;;1.50;;
11046;SDS011;5576;50.008;10.596;2023-09-19T14:22:20;2.40;;;1.33;;
11046;SDS011;5576;50.008;10.596;2023-09-19T14:24:47;2.30;;;1.30;;
11046;SDS011;5576;50.008;10.596;2023-09-19T14:27:13;2.20;;;1.40;;
11046;SDS011;5576;50.008;10.596;2023-09-19T14:29:38;2.47;;;1.48;;
11046;SDS011;5576;50.008;10.596;2023-09-19T14:32:04;1.67;;;1.20;;
11046;SDS011;5576;50.008;10.596;2023-09-19T14:34:33;2.90;;;1.40;;
11046;SDS011;5576;50.008;10.596;2023-09-19T14:37:01;2.35;;;1.30;;
11046;SDS011;5576;50.008;10.596;2023-09-19T14:39:27;2.90;;;1.40;;
11046;SDS011;5576;50.008;10.596;2023-09-19T14:41:56;2.03;;;1.47;;
11046;SDS011;5576;50.008;10.596;2023-09-19T14:44:21;2.28;;;1.30;;
11046;SDS011;5576;50.008;10.596;2023-09-19T14:46:47;2.63;;;1.30;;
11046;SDS011;5576;50.008;10.596;2023-09-19T14:49:13;3.03;;;1.50;;
11046;SDS011;5576;50.008;10.596;2023-09-19T14:51:40;2.53;;;1.40;;
11046;SDS011;5576;50.008;10.596;2023-09-19T14:54:07;2.88;;;1.55;;
11046;SDS011;5576;50.008;10.596;2023-09-19T14:56:33;3.97;;;2.10;;
11046;SDS011;5576;50.008;10.596;2023-09-19T14:59:00;2.87;;;1.60;;
11046;SDS011;5576;50.008;10.596;2023-09-19T15:01:32;2.60;;;1.65;;
11046;SDS011;5576;50.008;10.596;2023-09-19T15:03:58;4.30;;;2.60;;
11046;SDS011;5576;50.008;10.596;2023-09-19T15:06:28;4.90;;;2.70;;
11046;SDS011;5576;50.008;10.596;2023-09-19T15:08:53;3.33;;;1.70;;
11046;SDS011;5576;50.008;10.596;2023-09-19T15:11:19;2.67;;;1.40;;
11046;SDS011;5576;50.008;10.596;2023-09-19T15:13:46;3.30;;;1.70;;
11046;SDS011;5576;50.008;10.596;2023-09-19T15:16:13;1.90;;;1.20;;
11046;SDS011;5576;50.008;10.596;2023-09-19T15:18:40;2.90;;;1.40;;
11046;SDS011;5576;50.008;10.596;2023-09-19T15:21:07;3.60;;;1.50;;
11046;SDS011;5576;50.008;10.596;2023-09-19T15:23:35;1.98;;;1.30;;
11046;SDS011;5576;50.008;10.596;2023-09-19T15:26:06;2.05;;;1.40;;
11046;SDS011;5576;50.008;10.596;2023-09-19T15:28:34;2.25;;;1.38;;
11046;SDS011;5576;50.008;10.596;2023-09-19T15:31:02;3.10;;;1.50;;
11046;SDS011;5576;50.008;10.596;2023-09-19T15:33:30;2.20;;;1.50;;
11046;SDS011;5576;50.008;10.596;2023-09-19T15:36:12;2.97;;;1.40;;
11046;SDS011;5576;50.008;10.596;2023-09-19T15:38:58;2.03;;;1.30;;
11046;SDS011;5576;50.008;10.596;2023-09-19T15:41:27;2.97;;;1.43;;
11046;SDS011;5576;50.008;10.596;2023-09-19T15:43:56;2.97;;;1.30;;
11046;SDS011;5576;50.008;10.596;2023-09-19T15:46:24;3.30;;;1.50;;
11046;SDS011;5576;50.008;10.596;2023-09-19T15:48:52;1.47;;;1.20;;
11046;SDS011;5576;50.008;10.596;2023-09-19T15:51:25;2.00;;;1.30;;
11046;SDS011;5576;50.008;10.596;2023-09-19T15:53:52;2.20;;;1.40;;
11046;SDS011;5576;50.008;10.596;2023-09-19T15:56:21;2.60;;;1.30;;
11046;SDS011;5576;50.008;10.596;2023-09-19T15:58:48;2.42;;;1.33;;